KFSE

Details ICAO KFSE
Name FOSSTON MUNI
Region United States
Timezone America/Chicago (UTC-5.0)
Plans Departing 0
Arriving 3
Stats Elevation 1,277 ft / 389 m (AMSL)
Location 47.592829° -95.773488°
Runways 1
Magnetic Variation 1.999° E
Sunrise 2018-05-20 10:41:15 UTC / 2018-05-20 05:41:15 Local
Sunset 2018-05-21 02:00:52 UTC / 2018-05-20 21:00:52 Local
Advertisement - Login to hide

Runways

ID Width Length Bearing (true) Bearing (mag) Surface Threshold Offset Overrun Length
16 75 ft / 23 m 3,503 ft / 1,068 m 167.46° 165.46° Asphalt 0 ft / 0 m 0 ft / 0 m
34 75 ft / 23 m 3,503 ft / 1,068 m 347.47° 345.47° Asphalt 0 ft / 0 m 0 ft / 0 m

Map

Weather


0- 5 10 15 20 25 30 35+ Temperature / ° C

Clouds and Precipitation
Forecast for 2018-05-20 12:00 UTC. Updated an hour ago

Ground ~20,000 ft ~40,000 ft Winds

METAR

KFSE 200955Z AUTO 00000KT 10SM CLR 01/M02 A3025 RMK AO2

TAF

Not found

Frequencies

Unicom 122.90 MHz CTAF
Warning: Do not use this data for real-world aviation or navigation. No guarantee of current accuracy is given.